Terminal Aerodrome Forecast
Issued by NWS

Home | Current Version | Previous Version | Graphics & Text | Print | Product List | Glossary On
Versions: 1 2 3 4 5 6 7 8 9 10 11 12 13 14 15 16 17 18 19 20 21 22 23
538
FTUS43 KMPX 190751 AAA
TAFAXN
TAF AMD
KAXN 190751Z 1908/2006 01016G23KT P6SM SCT015 OVC100
     FM191200 12015G24KT P6SM VCSH BKN025 OVC050
     FM191500 03014G21KT P6SM BKN025 OVC050
     FM191800 04015G21KT 2SM -SN BR OVC015=

USA.gov is the U.S. government's official web portal to all federal, state and local government web resources and services.